tititudorancea.com
Station Historical Data
Daily Summary for November 2, 2018 Units:  Metric    English   Both
« Previous Day
Next Day »
Daily Weekly Monthly Yearly Custom
  High: Low: Average:
Temperature: -17.8 °C 13.5 °C 20.9 °C
Dew Point: -17.8 °C 3.3 °C 11.9 °C
Humidity: Humidity % 25 % 59 %
Wind Speed: 0 km/h 1.9 km/h 24 km/h
Wind Gust: 0 km/h - -
Wind:- - WNW
Pressure: 0 hPa 1003.6 hPa -
Precipitation: 4.57 mm    
Historical Graphs
 
 
Ararat weather Find more about Weather in Ararat, AU


 



 


Tabular Data for November 2, 2018
Time Temperature Dew Point Pressure Wind Wind Speed Wind Gust Humidity Rainfall Rate (Hourly)
-17.8 °C -17.8 °C 0 hPa Calm     Humidity % 0 mm
00:04 23.7 °C 12.6 °C 1006.7 hPa North 5.6 km/h 3.4 km/h 50 % 0 mm
00:09 23.9 °C 12.5 °C 1006.7 hPa North 9.3 km/h 7.2 km/h 49 % 0 mm
00:14 24.4 °C 12.7 °C 1006.7 hPa NNW 7.4 km/h 5 km/h 48 % 0 mm
00:19 24.5 °C 12.4 °C 1006.7 hPa North 5.6 km/h 2.1 km/h 47 % 0 mm
00:24 24.4 °C 12.3 °C 1006.7 hPa NNW 9.3 km/h 7.6 km/h 47 % 0 mm
00:29 24.3 °C 12.6 °C 1006.7 hPa North 13 km/h 9.7 km/h 48 % 0 mm
00:34 24.2 °C 12.4 °C 1006.7 hPa North 9.3 km/h 7.1 km/h 48 % 0 mm
00:39 23.9 °C 12.5 °C 1006.7 hPa North 7.4 km/h 5.6 km/h 49 % 0 mm
00:44 23.7 °C 12.7 °C 1006.7 hPa North 5.6 km/h 5.5 km/h 50 % 0 mm
00:49 23.6 °C 12.6 °C 1006.7 hPa North 5.6 km/h 3.7 km/h 50 % 0 mm
00:54 23.5 °C 12.5 °C 1006.7 hPa North 6.4 km/h 3.7 km/h 50 % 0 mm
00:59 23.6 °C 12.5 °C 1006.7 hPa North 9.3 km/h 4.8 km/h 50 % 0 mm
01:04 23.7 °C 12.6 °C 1006.7 hPa North 7.4 km/h 4.3 km/h 50 % 0 mm
01:09 23.7 °C 12.7 °C 1006.7 hPa North 8 km/h 5 km/h 50 % 0 mm
01:14 23.8 °C 12.4 °C 1006.7 hPa North 6.4 km/h 6.3 km/h 49 % 0 mm
01:19 23.9 °C 12.5 °C 1006.7 hPa North 7.4 km/h 6.9 km/h 49 % 0 mm
01:24 23.9 °C 12.6 °C 1006.7 hPa NNW 9.3 km/h 5.3 km/h 49 % 0 mm
01:29 23.9 °C 12.3 °C 1006.7 hPa North 7.4 km/h 5.6 km/h 48 % 0 mm
01:34 23.9 °C 12.3 °C 1006.3 hPa North 9.3 km/h 5.5 km/h 48 % 0 mm
01:39 23.8 °C 12.4 °C 1006.3 hPa NNW 7.4 km/h 7.7 km/h 49 % 0 mm
01:44 23.7 °C 12.4 °C 1006.3 hPa North 9.3 km/h 6.3 km/h 49 % 0 mm
01:49 23.6 °C 12.2 °C 1006.3 hPa NNW 6.4 km/h 4.7 km/h 49 % 0 mm
01:54 23.4 °C 12.4 °C 1006.3 hPa North 9.3 km/h 5.3 km/h 50 % 0 mm
01:59 23.3 °C 12.3 °C 1006.3 hPa NNW 11.1 km/h 6.3 km/h 50 % 0 mm
02:04 23.2 °C 12.2 °C 1006 hPa NNW 11.1 km/h 6.6 km/h 50 % 0 mm
02:09 23.1 °C 12.1 °C 1006 hPa North 11.1 km/h 6.3 km/h 50 % 0 mm
02:14 23.1 °C 12.1 °C 1006 hPa NNW 8 km/h 6.8 km/h 50 % 0 mm
02:19 22.9 °C 12.3 °C 1006 hPa NNW 7.4 km/h 5.3 km/h 51 % 0 mm
02:24 22.8 °C 12.2 °C 1006 hPa North 8 km/h 5.5 km/h 51 % 0 mm
02:29 22.8 °C 12.1 °C 1006 hPa NNW 11.1 km/h 6.4 km/h 51 % 0 mm
02:34 22.8 °C 12.1 °C 1006 hPa NNW 11.1 km/h 6.8 km/h 51 % 0 mm
02:39 22.7 °C 12.1 °C 1006 hPa NNW 9.3 km/h 6.8 km/h 51 % 0 mm
02:44 22.7 °C 12.1 °C 1006 hPa North 13 km/h 7.7 km/h 51 % 0 mm
02:49 22.8 °C 11.9 °C 1006 hPa North 16.7 km/h 9.7 km/h 50 % 0 mm
02:54 22.9 °C 11.9 °C 1005.6 hPa NNW 11.1 km/h 7.1 km/h 50 % 0 mm
02:59 22.9 °C 11.9 °C 1005.6 hPa NNW 13 km/h 7.9 km/h 50 % 0 mm
03:04 22.9 °C 11.9 °C 1005.6 hPa NNW 11.3 km/h 8 km/h 50 % 0 mm
03:09 22.8 °C 11.9 °C 1005.6 hPa NNW 13 km/h 7.4 km/h 50 % 0 mm
03:14 22.7 °C 11.8 °C 1005.6 hPa North 11.1 km/h 5.8 km/h 50 % 0 mm
03:19 22.7 °C 11.7 °C 1005.3 hPa NNW 11.1 km/h 10.1 km/h 50 % 0 mm
03:24 22.6 °C 11.6 °C 1005.6 hPa NNW 11.1 km/h 8.9 km/h 50 % 0 mm
03:29 22.5 °C 11.6 °C 1005.3 hPa NNW 13 km/h 10.9 km/h 50 % 0 mm
03:34 22.4 °C 11.8 °C 1005.3 hPa NNW 14.8 km/h 8.9 km/h 51 % 0 mm
03:39 22.4 °C 11.8 °C 1005.3 hPa NNW 9.3 km/h 6.6 km/h 51 % 0 mm
03:44 22.2 °C 11.6 °C 1005.3 hPa NNW 14.8 km/h 8.4 km/h 51 % 0 mm
03:49 22.1 °C 11.8 °C 1005 hPa NNW 11.3 km/h 8.9 km/h 52 % 0 mm
03:54 21.9 °C 11.6 °C 1005 hPa NNW 16.7 km/h 7.7 km/h 52 % 0 mm
03:59 21.8 °C 11.6 °C 1005 hPa North 13 km/h 10 km/h 52 % 0 mm
04:04 21.7 °C 11.7 °C 1005 hPa North 11.1 km/h 7.7 km/h 53 % 0 mm
04:09 21.7 °C 11.7 °C 1005 hPa North 14.8 km/h 8.5 km/h 53 % 0 mm
04:14 21.7 °C 11.7 °C 1005 hPa NNW 13 km/h 7.9 km/h 53 % 0 mm
04:19 21.6 °C 11.6 °C 1005 hPa NNW 11.1 km/h 10.5 km/h 53 % 0 mm
04:24 21.7 °C 11.4 °C 1005 hPa North 11.1 km/h 8 km/h 52 % 0 mm
04:29 21.6 °C 11.6 °C 1005 hPa North 11.3 km/h 9.5 km/h 53 % 0 mm
04:34 21.6 °C 11.6 °C 1005.3 hPa North 11.1 km/h 6.4 km/h 53 % 0 mm
04:39 21.6 °C 11.6 °C 1005 hPa NNW 14.8 km/h 9.8 km/h 53 % 0 mm
04:44 21.6 °C 11.6 °C 1005.3 hPa North 14.8 km/h 8.5 km/h 53 % 0 mm
04:49 21.6 °C 11.3 °C 1005.3 hPa NNW 16.7 km/h 7.9 km/h 52 % 0 mm
04:54 21.6 °C 11.3 °C 1005.3 hPa North 11.3 km/h 7.6 km/h 52 % 0 mm
04:59 21.6 °C 11.6 °C 1005 hPa NNW 16.7 km/h 8.9 km/h 53 % 0 mm
05:04 21.4 °C 11.7 °C 1005 hPa NNW 13 km/h 6 km/h 54 % 0 mm
05:09 21.2 °C 11.6 °C 1005 hPa North 11.1 km/h 7.7 km/h 54 % 0 mm
05:14 21.1 °C 11.4 °C 1005 hPa North 8 km/h 8.4 km/h 54 % 0 mm
05:19 21.2 °C 11.5 °C 1005.3 hPa NNW 14.8 km/h 10.1 km/h 54 % 0 mm
05:24 21.2 °C 11.6 °C 1005.6 hPa NNW 18.5 km/h 15.1 km/h 54 % 0 mm
05:29 21.2 °C 11.6 °C 1005.6 hPa North 18.5 km/h 9.8 km/h 54 % 0 mm
05:34 21.2 °C 11.8 °C 1005.6 hPa North 22.2 km/h 14.2 km/h 55 % 0 mm
05:39 21.1 °C 11.7 °C 1005.6 hPa North 13 km/h 10.3 km/h 55 % 0 mm
05:44 21.1 °C 11.9 °C 1004.6 hPa North 27.8 km/h 17.5 km/h 56 % 0 mm
05:49 21.2 °C 13.2 °C 1004.6 hPa NW 27.8 km/h 21.1 km/h 60 % 0 mm
05:54 21 °C 13.9 °C 1004.6 hPa NNW 27.4 km/h 18.7 km/h 64 % 0 mm
05:59 20.8 °C 14.2 °C 1004.6 hPa NW 20.4 km/h 16.1 km/h 66 % 0 mm
06:04 20.6 °C 14.5 °C 1005.3 hPa North 17.7 km/h 12.4 km/h 68 % 0 mm
06:09 20.5 °C 14.6 °C 1006.3 hPa NW 33.3 km/h 17.5 km/h 69 % 0 mm
06:14 20.6 °C 14.4 °C 1006.7 hPa WNW 27.8 km/h 18.8 km/h 68 % 0 mm
06:19 21 °C 14.4 °C 1007 hPa NW 29.6 km/h 20.3 km/h 66 % 0 mm
06:24 21.4 °C 14.8 °C 1006.7 hPa NNW 29.6 km/h 22.7 km/h 66 % 0 mm
06:29 21.2 °C 15.1 °C 1006 hPa North 24.1 km/h 13.7 km/h 68 % 0.25 mm
06:34 20.4 °C 15 °C 1006.7 hPa North 27.8 km/h 20.6 km/h 71 % 0.25 mm
06:39 19.9 °C 15.3 °C 1007 hPa North 35.2 km/h 20 km/h 75 % 0.51 mm
06:44 19.5 °C 15.8 °C 1007.7 hPa North 51.5 km/h 31.5 km/h 79 % 0.76 mm
06:49 19.6 °C 16 °C 1007.7 hPa NNW 37 km/h 24.6 km/h 80 % 1.52 mm
06:54 19.4 °C 16.1 °C 1007.7 hPa North 29.6 km/h 21.4 km/h 81 % 1.52 mm
06:59 19.3 °C 16.1 °C 1007.7 hPa NNW 27.8 km/h 19.3 km/h 82 % 1.78 mm
07:04 19.1 °C 16.1 °C 1007.3 hPa NNE 20.4 km/h 13.4 km/h 83 % 2.03 mm
07:09 18.9 °C 16.1 °C 1007 hPa NNW 18.5 km/h 11.6 km/h 84 % 2.29 mm
07:14 18.7 °C 16.1 °C 1007.3 hPa NW 17.7 km/h 12.9 km/h 85 % 2.54 mm
07:19 18.5 °C 16.1 °C 1007.3 hPa NNW 18.5 km/h 14.6 km/h 86 % 2.79 mm
07:24 18.3 °C 15.9 °C 1007 hPa North 24.1 km/h 17.1 km/h 86 % 3.3 mm
07:29 18.2 °C 15.9 °C 1006 hPa North 22.2 km/h 18.3 km/h 87 % 3.56 mm
07:34 18.1 °C 15.9 °C 1005.6 hPa North 22.5 km/h 16.6 km/h 87 % 3.81 mm
07:39 18.1 °C 16.1 °C 1005.6 hPa North 18.5 km/h 14.2 km/h 88 % 3.81 mm
07:44 18 °C 16.2 °C 1005.6 hPa North 18.5 km/h 9.7 km/h 89 % 3.3 mm
07:49 18 °C 16.2 °C 1006 hPa North 22.2 km/h 11.6 km/h 89 % 2.79 mm
07:54 18 °C 16.2 °C 1006.3 hPa North 20.4 km/h 10.9 km/h 89 % 2.79 mm
07:59 18 °C 16.2 °C 1007 hPa NW 14.8 km/h 11.1 km/h 89 % 2.29 mm
08:04 18 °C 16.2 °C 1007 hPa NW 22.2 km/h 8.4 km/h 89 % 2.29 mm
08:09 18 °C 16.2 °C 1007 hPa NNW 14.5 km/h 11.4 km/h 89 % 2.03 mm
08:14 17.9 °C 16.1 °C 1006.3 hPa North 13 km/h 12.2 km/h 89 % 1.52 mm
08:19 17.9 °C 16.3 °C 1006.7 hPa North 22.2 km/h 14.3 km/h 90 % 1.52 mm
08:24 18 °C 16.3 °C 1006.7 hPa North 7.4 km/h 6.9 km/h 90 % 0.76 mm
08:29 18.1 °C 16.4 °C 1006.7 hPa North 13 km/h 8.9 km/h 90 % 0.51 mm
08:34 18.1 °C 16.4 °C 1006.7 hPa North 16.7 km/h 10.3 km/h 90 % 0.25 mm
08:39 18.1 °C 16.4 °C 1007 hPa North 14.5 km/h 8.4 km/h 90 % 0 mm
08:44 18.1 °C 16.4 °C 1006.3 hPa North 14.8 km/h 14.8 km/h 90 % 0 mm
08:49 18.1 °C 16.4 °C 1006.7 hPa North 11.1 km/h 5.8 km/h 90 % 0 mm
08:54 18 °C 16.5 °C 1006.7 hPa North 16.7 km/h 13.2 km/h 91 % 0 mm
08:59 18 °C 16.5 °C 1006 hPa North 11.1 km/h 9.7 km/h 91 % 0 mm
09:04 18.1 °C 16.6 °C 1005.6 hPa North 14.8 km/h 10.8 km/h 91 % 0 mm
09:09 18.1 °C 16.6 °C 1005.3 hPa North 16.7 km/h 7.9 km/h 91 % 0 mm
09:14 18.1 °C 16.6 °C 1005.6 hPa North 9.3 km/h 9.5 km/h 91 % 0 mm
09:19 18.2 °C 16.7 °C 1005.6 hPa North 20.9 km/h 15 km/h 91 % 0 mm
09:24 18.3 °C 16.8 °C 1005.6 hPa North 18.5 km/h 9.8 km/h 91 % 0 mm
09:29 18.4 °C 16.9 °C 1006 hPa North 17.7 km/h 11.7 km/h 91 % 0 mm
09:34 18.4 °C 16.8 °C 1006.3 hPa North 19.3 km/h 10.8 km/h 90 % 0 mm
09:39 18.5 °C 16.8 °C 1006.3 hPa North 18.5 km/h 13.4 km/h 90 % 0.25 mm
09:44 18.4 °C 16.7 °C 1006.7 hPa NNW 14.8 km/h 10.9 km/h 90 % 0.51 mm
09:49 18.3 °C 16.7 °C 1006.7 hPa North 18.5 km/h 11.3 km/h 90 % 0.51 mm
09:54 18.3 °C 16.8 °C 1006.3 hPa North 31.5 km/h 17.5 km/h 91 % 0.51 mm
09:59 18.3 °C 16.8 °C 1006.3 hPa NNW 16.7 km/h 14.3 km/h 91 % 0.51 mm
10:04 18.4 °C 16.9 °C 1006.3 hPa NNW 18.5 km/h 12.7 km/h 91 % 0.51 mm
10:09 18.4 °C 16.9 °C 1005.6 hPa NNW 18.5 km/h 10 km/h 91 % 0.51 mm
10:14 18.4 °C 16.9 °C 1005 hPa North 18.5 km/h 9 km/h 91 % 0.51 mm
10:19 18.6 °C 17.1 °C 1005 hPa NNW 13 km/h 7.4 km/h 91 % 0.51 mm
10:24 18.8 °C 17.5 °C 1005 hPa NNW 12.9 km/h 10.5 km/h 92 % 0.51 mm
10:29 18.9 °C 17.4 °C 1005 hPa NNW 16.7 km/h 7.9 km/h 91 % 0.51 mm
10:34 19.1 °C 17.6 °C 1005.3 hPa NNW 16.7 km/h 6.9 km/h 91 % 0.51 mm
10:39 19.4 °C 17.9 °C 1005.3 hPa NNW 16.7 km/h 10.3 km/h 91 % 0.25 mm
10:44 19.8 °C 18.1 °C 1005 hPa North 22.2 km/h 13.7 km/h 90 % 0 mm
10:49 20.1 °C 18.1 °C 1005.3 hPa North 18.5 km/h 14 km/h 88 % 0 mm
10:54 20.5 °C 18.4 °C 1005 hPa NNW 17.7 km/h 11.7 km/h 88 % 0 mm
10:59 20.8 °C 18.3 °C 1005 hPa NNE 27.8 km/h 16.3 km/h 86 % 0 mm
11:04 20.9 °C 18.3 °C 1005 hPa North 20.4 km/h 8.7 km/h 85 % 0 mm
11:09 21.4 °C 18.6 °C 1005 hPa North 18.5 km/h 11.6 km/h 84 % 0 mm
11:14 21.8 °C 18.8 °C 1004.6 hPa NNW 12.9 km/h 14.5 km/h 83 % 0 mm
11:19 22.1 °C 18.7 °C 1004.6 hPa North 25.9 km/h 15 km/h 81 % 0 mm
11:24 22.2 °C 18.6 °C 1005 hPa North 22.2 km/h 13.8 km/h 80 % 0 mm
11:29 22.6 °C 18.7 °C 1005 hPa NNW 17.7 km/h 13.5 km/h 79 % 0 mm
11:34 22.8 °C 18.7 °C 1005 hPa NNW 25.9 km/h 13.7 km/h 78 % 0 mm
11:39 23.2 °C 18.3 °C 1005 hPa NW 29.6 km/h 14.2 km/h 74 % 0 mm
11:44 23.5 °C 18.6 °C 1005 hPa NW 14.8 km/h 12.9 km/h 74 % 0 mm
11:49 23.7 °C 17.7 °C 1005 hPa NW 35.2 km/h 18.7 km/h 69 % 0 mm
11:54 23.8 °C 17.6 °C 1005 hPa North 38.9 km/h 21.4 km/h 68 % 0 mm
11:59 23.7 °C 17.2 °C 1005 hPa NNW 37 km/h 19.5 km/h 67 % 0 mm
12:04 23.7 °C 17.4 °C 1005 hPa NW 30.6 km/h 20.9 km/h 68 % 0 mm
12:09 23.8 °C 17.6 °C 1004.6 hPa WNW 35.2 km/h 21.7 km/h 68 % 0 mm
12:14 23.9 °C 17.7 °C 1004.6 hPa North 22.2 km/h 20.1 km/h 68 % 0 mm
12:19 23.8 °C 17.7 °C 1004.6 hPa North 33.3 km/h 14.8 km/h 69 % 0 mm
12:24 24.1 °C 18.3 °C 1004.6 hPa NW 22.5 km/h 16.1 km/h 70 % 0 mm
12:29 24.3 °C 18.4 °C 1004.3 hPa NW 25.9 km/h 14.8 km/h 70 % 0 mm
12:34 24.3 °C 18.5 °C 1004.3 hPa NNW 18.5 km/h 13.7 km/h 70 % 0 mm
12:39 24.5 °C 18.7 °C 1004.3 hPa NW 20.4 km/h 15.3 km/h 70 % 0 mm
12:44 24.6 °C 18.6 °C 1004.3 hPa NW 33.3 km/h 12.1 km/h 69 % 0 mm
12:49 24.7 °C 18.4 °C 1004.3 hPa NW 18.5 km/h 16.1 km/h 68 % 0 mm
12:54 25 °C 18.2 °C 1003.9 hPa NW 25.9 km/h 20.9 km/h 66 % 0 mm
12:59 25.1 °C 17.8 °C 1004.3 hPa NNW 37 km/h 20.6 km/h 64 % 0 mm
13:04 25.3 °C 17.5 °C 1004.3 hPa NW 37 km/h 23.8 km/h 62 % 0 mm
13:09 25.4 °C 17.6 °C 1004.3 hPa NW 37 km/h 24.3 km/h 62 % 0 mm
13:14 25.5 °C 17.2 °C 1003.9 hPa WNW 33.3 km/h 26.1 km/h 60 % 0 mm
13:19 25.7 °C 17.6 °C 1004.3 hPa NW 40.2 km/h 26.1 km/h 61 % 0 mm
13:24 25.8 °C 17.4 °C 1003.9 hPa NW 35.2 km/h 19.6 km/h 60 % 0 mm
13:29 26.2 °C 17 °C 1003.9 hPa North 33.3 km/h 26.4 km/h 57 % 0 mm
13:34 26.2 °C 17 °C 1003.9 hPa North 43.5 km/h 30.6 km/h 57 % 0 mm
13:39 26.1 °C 16.9 °C 1003.9 hPa NW 38.9 km/h 28.3 km/h 57 % 0 mm
13:44 26.6 °C 17.1 °C 1003.9 hPa NW 37 km/h 25.9 km/h 56 % 0 mm
13:49 26.6 °C 16.8 °C 1003.6 hPa North 51.5 km/h 32.5 km/h 55 % 0 mm
13:54 26.3 °C 16.8 °C 1003.9 hPa NNW 33.3 km/h 25.6 km/h 56 % 0 mm
13:59 26.5 °C 16.7 °C 1003.9 hPa NW 44.4 km/h 28.6 km/h 55 % 0 mm
14:04 26.9 °C 16.5 °C 1003.6 hPa West 35.2 km/h 30.4 km/h 53 % 0 mm
14:09 27.2 °C 16.8 °C 1003.6 hPa NW 31.5 km/h 24.3 km/h 53 % 0 mm
14:14 27.3 °C 16.3 °C 1003.9 hPa WNW 35.2 km/h 17.9 km/h 51 % 0 mm
14:19 27.3 °C 15.7 °C 1003.9 hPa North 42.6 km/h 25.7 km/h 49 % 0 mm
14:24 27.2 °C 15.2 °C 1003.9 hPa WNW 42.6 km/h 27.7 km/h 48 % 0 mm
14:29 27.2 °C 14.9 °C 1003.6 hPa NW 38.9 km/h 29.9 km/h 47 % 0 mm
14:34 26.8 °C 14.2 °C 1003.9 hPa North 31.5 km/h 25.3 km/h 46 % 0 mm
14:39 26.7 °C 14.2 °C 1003.9 hPa North 45.1 km/h 30.6 km/h 46 % 0 mm
14:44 26.8 °C 13.6 °C 1003.6 hPa WNW 51.8 km/h 38.8 km/h 44 % 0 mm
14:49 26.8 °C 14.5 °C 1003.6 hPa North 42.6 km/h 28.5 km/h 47 % 0 mm
14:54 26.8 °C 14.2 °C 1003.6 hPa North 31.5 km/h 25.6 km/h 46 % 0 mm
14:59 26.7 °C 13.1 °C 1003.6 hPa North 40.7 km/h 28.8 km/h 43 % 0 mm
15:04 26.6 °C 12.3 °C 1003.6 hPa NW 33.3 km/h 25.9 km/h 41 % 0 mm
15:09 26.6 °C 11.4 °C 1003.9 hPa North 38.9 km/h 33.8 km/h 39 % 0 mm
15:14 26 °C 10.9 °C 1003.9 hPa NW 44.4 km/h 23 km/h 39 % 0 mm
15:19 26.1 °C 10.2 °C 1003.9 hPa NNW 48.1 km/h 37.8 km/h 37 % 0 mm
15:24 25.9 °C 10.5 °C 1003.6 hPa West 35.2 km/h 20.8 km/h 38 % 0 mm
15:29 26.2 °C 10.3 °C 1003.6 hPa WNW 31.5 km/h 24.9 km/h 37 % 0 mm
15:34 25.8 °C 10 °C 1003.9 hPa West 46.7 km/h 31.9 km/h 37 % 0 mm
15:39 25.5 °C 9.3 °C 1003.9 hPa NW 42.6 km/h 34.4 km/h 36 % 0 mm
15:44 25.7 °C 9.5 °C 1003.6 hPa WNW 42.6 km/h 29.8 km/h 36 % 0 mm
15:49 25.5 °C 9.7 °C 1003.9 hPa WNW 42.6 km/h 27.2 km/h 37 % 0 mm
15:54 25.5 °C 9.7 °C 1003.9 hPa WNW 44.4 km/h 33.6 km/h 37 % 0 mm
15:59 25.6 °C 9.4 °C 1003.9 hPa NW 42.6 km/h 33 km/h 36 % 0 mm
16:04 25.3 °C 9.2 °C 1003.9 hPa West 53.8 km/h 32.2 km/h 36 % 0 mm
16:09 25.4 °C 8.8 °C 1003.6 hPa WNW 48.1 km/h 31.2 km/h 35 % 0 mm
16:14 25.2 °C 8.6 °C 1003.9 hPa WNW 46.3 km/h 41 km/h 35 % 0 mm
16:19 25.2 °C 8.2 °C 1003.9 hPa WNW 44.4 km/h 29.5 km/h 34 % 0 mm
16:24 25.1 °C 8.1 °C 1003.9 hPa NW 59.2 km/h 31.9 km/h 34 % 0 mm
16:29 25.1 °C 8.1 °C 1003.9 hPa WNW 51.8 km/h 24.1 km/h 34 % 0 mm
16:34 25.1 °C 7.2 °C 1003.9 hPa WNW 55.5 km/h 44.7 km/h 32 % 0 mm
16:39 25.2 °C 7.7 °C 1003.9 hPa NW 37 km/h 21.1 km/h 33 % 0 mm
16:44 25.1 °C 8.2 °C 1003.9 hPa North 50 km/h 40.2 km/h 34 % 0 mm
16:49 25.2 °C 8.6 °C 1003.9 hPa North 41.8 km/h 32.3 km/h 35 % 0 mm
16:54 25.2 °C 8.7 °C 1004.3 hPa West 37 km/h 24.3 km/h 35 % 0 mm
16:59 25.1 °C 7.2 °C 1004.3 hPa WNW 31.5 km/h 15.6 km/h 32 % 0 mm
17:04 25.4 °C 6.1 °C 1004.3 hPa North 33.8 km/h 29 km/h 29 % 0 mm
17:09 25.3 °C 4.9 °C 1004.3 hPa North 20.4 km/h 17.1 km/h 27 % 0 mm
17:14 25.1 °C 3.7 °C 1004.3 hPa WNW 29.6 km/h 19.5 km/h 25 % 0 mm
17:19 24.6 °C 3.3 °C 1004.3 hPa West 42.6 km/h 31.7 km/h 25 % 0 mm
17:24 24.4 °C 4.2 °C 1004.6 hPa WNW 31.5 km/h 25.6 km/h 27 % 0 mm
17:29 24.3 °C 4.1 °C 1004.3 hPa North 37 km/h 27.8 km/h 27 % 0 mm
17:34 24.4 °C 4.7 °C 1004.6 hPa WNW 24.1 km/h 18.3 km/h 28 % 0 mm
17:39 24.4 °C 4.7 °C 1004.6 hPa WNW 30.6 km/h 21.7 km/h 28 % 0 mm
17:44 24.1 °C 5.4 °C 1005 hPa WSW 27.8 km/h 19.3 km/h 30 % 0 mm
17:49 23.7 °C 4.1 °C 1005 hPa West 33.3 km/h 26.7 km/h 28 % 0 mm
17:54 23.5 °C 3.9 °C 1005 hPa WSW 30.6 km/h 29.5 km/h 28 % 0 mm
17:59 23.2 °C 4.2 °C 1005 hPa WSW 40.7 km/h 24.1 km/h 29 % 0 mm
18:04 23 °C 4.5 °C 1005 hPa North 29.6 km/h 20.3 km/h 30 % 0 mm
18:09 23 °C 4 °C 1005 hPa West 37 km/h 24.6 km/h 29 % 0 mm
18:14 22.8 °C 3.8 °C 1005 hPa West 40.7 km/h 32.5 km/h 29 % 0 mm
18:19 22.5 °C 4.5 °C 1005.3 hPa West 35.2 km/h 25.4 km/h 31 % 0 mm
18:24 22.1 °C 4.6 °C 1005.3 hPa WSW 29.6 km/h 31.5 km/h 32 % 0 mm
18:29 21.8 °C 5.3 °C 1005.6 hPa WSW 40.7 km/h 31.4 km/h 34 % 0 mm
18:34 21.6 °C 5.8 °C 1005.6 hPa West 40.7 km/h 30.4 km/h 36 % 0 mm
18:39 21.3 °C 6 °C 1005.6 hPa West 38.9 km/h 28.6 km/h 37 % 0 mm
18:44 20.9 °C 6.1 °C 1005.6 hPa West 40.2 km/h 31.4 km/h 38 % 0 mm
18:49 20.6 °C 6.2 °C 1005.6 hPa West 42.6 km/h 36.5 km/h 39 % 0 mm
18:54 20.3 °C 6.3 °C 1006 hPa West 46.3 km/h 37.7 km/h 40 % 0 mm
18:59 19.8 °C 6.6 °C 1006 hPa WSW 53.8 km/h 30.6 km/h 42 % 0 mm
19:04 19.4 °C 6.9 °C 1006 hPa WNW 44.4 km/h 38.8 km/h 44 % 0 mm
19:09 19.2 °C 7 °C 1006 hPa West 51.8 km/h 31.7 km/h 45 % 0 mm
19:14 19.1 °C 7.2 °C 1006.3 hPa West 43.5 km/h 34.4 km/h 46 % 0 mm
19:19 18.8 °C 7.6 °C 1006.3 hPa West 42.6 km/h 33.5 km/h 48 % 0 mm
19:24 18.7 °C 7.7 °C 1006 hPa WNW 42.6 km/h 32.3 km/h 49 % 0 mm
19:29 18.5 °C 7.9 °C 1006 hPa North 48.1 km/h 29.9 km/h 50 % 0 mm
19:34 18.3 °C 8 °C 1006.3 hPa West 55.5 km/h 36.4 km/h 51 % 0 mm
19:39 18.2 °C 7.9 °C 1006.3 hPa WNW 35.2 km/h 33.3 km/h 51 % 0 mm
19:44 18 °C 8 °C 1006.7 hPa WNW 40.7 km/h 28.8 km/h 52 % 0 mm
19:49 17.8 °C 7.8 °C 1006.7 hPa WNW 44.4 km/h 34.1 km/h 52 % 0 mm
19:54 17.6 °C 7.6 °C 1007 hPa West 40.7 km/h 24.1 km/h 52 % 0 mm
19:59 17.4 °C 7.8 °C 1007.3 hPa WNW 27.8 km/h 16.3 km/h 53 % 0 mm
20:04 17.2 °C 7.8 °C 1007.7 hPa WSW 35.2 km/h 18.3 km/h 54 % 0 mm
20:09 17.1 °C 7.7 °C 1007.7 hPa West 29 km/h 22.5 km/h 54 % 0 mm
20:14 16.9 °C 8.3 °C 1007.7 hPa West 31.5 km/h 19.6 km/h 57 % 0 mm
20:19 16.7 °C 8.3 °C 1008 hPa West 27.8 km/h 16.4 km/h 58 % 0 mm
20:24 16.5 °C 8.2 °C 1008 hPa North 31.5 km/h 28.2 km/h 58 % 0 mm
20:29 16.4 °C 8.2 °C 1008 hPa North 20.4 km/h 13.2 km/h 58 % 0 mm
20:34 16.4 °C 7.6 °C 1008 hPa West 27.8 km/h 22.4 km/h 56 % 0 mm
20:39 16.6 °C 7.5 °C 1008 hPa WNW 44.4 km/h 34.9 km/h 55 % 0 mm
20:44 16.6 °C 7.5 °C 1008 hPa WNW 40.7 km/h 25.9 km/h 55 % 0 mm
20:49 16.5 °C 7.4 °C 1008.4 hPa West 33.3 km/h 20.1 km/h 55 % 0 mm
20:54 16.3 °C 7.6 °C 1008.7 hPa West 25.9 km/h 11.9 km/h 56 % 0 mm
20:59 16.2 °C 7.7 °C 1008.7 hPa WNW 16.7 km/h 12.2 km/h 57 % 0 mm
21:04 16.1 °C 7.6 °C 1008.7 hPa West 18.5 km/h 11.1 km/h 57 % 0 mm
21:09 16.1 °C 7.6 °C 1008.7 hPa North 18.5 km/h 9.8 km/h 57 % 0 mm
21:14 16.1 °C 7.6 °C 1008.7 hPa WNW 5.6 km/h 2.4 km/h 57 % 0 mm
21:19 15.9 °C 7.6 °C 1008.7 hPa West 5.6 km/h 3.9 km/h 58 % 0 mm
21:24 15.8 °C 7.5 °C 1009 hPa NW 16.7 km/h 4.3 km/h 58 % 0 mm
21:29 15.8 °C 7.8 °C 1009 hPa West 16.7 km/h 9.2 km/h 59 % 0 mm
21:34 15.7 °C 8 °C 1009 hPa WNW 20.4 km/h 10.5 km/h 60 % 0 mm
21:39 15.6 °C 8.1 °C 1009.4 hPa WNW 9.7 km/h 7.6 km/h 61 % 0 mm
21:44 15.5 °C 8.2 °C 1009.4 hPa NW 13 km/h 7.4 km/h 62 % 0 mm
21:49 15.4 °C 8.4 °C 1009.4 hPa SW 14.8 km/h 12.1 km/h 63 % 0 mm
21:54 15.2 °C 8.2 °C 1009.4 hPa NW 14.8 km/h 10.5 km/h 63 % 0 mm
21:59 15.1 °C 8.3 °C 1009.4 hPa NW 18.5 km/h 9.5 km/h 64 % 0 mm
22:04 15.1 °C 8.3 °C 1009.7 hPa WNW 18.5 km/h 11.7 km/h 64 % 0 mm
22:09 15 °C 8 °C 1009.7 hPa WNW 13 km/h 11.9 km/h 63 % 0 mm
22:14 15.1 °C 8.1 °C 1009.7 hPa WNW 16.7 km/h 3.4 km/h 63 % 0 mm
22:19 15.1 °C 8.1 °C 1009.7 hPa WNW 9.3 km/h 4.2 km/h 63 % 0 mm
22:24 14.8 °C 7.8 °C 1009.7 hPa ENE 16.1 km/h 5.3 km/h 63 % 0 mm
22:29 14.8 °C 7.8 °C 1009.7 hPa NNE 5.6 km/h 3.5 km/h 63 % 0 mm
22:34 14.7 °C 7.9 °C 1010 hPa South 7.4 km/h 4.7 km/h 64 % 0 mm
22:39 14.6 °C 7.7 °C 1010 hPa South 7.4 km/h 3.5 km/h 63 % 0 mm
22:44 14.6 °C 7.8 °C 1010 hPa South 8 km/h 4.7 km/h 64 % 0 mm
22:49 14.6 °C 7.6 °C 1010.4 hPa SSE 5.6 km/h 0.3 km/h 63 % 0 mm
22:54 14.4 °C 7.7 °C 1010.4 hPa SSE 1.9 km/h 3.1 km/h 64 % 0 mm
22:59 14.4 °C 6.9 °C 1010.4 hPa NW 12.9 km/h 8.9 km/h 61 % 0 mm
23:04 14.4 °C 7.2 °C 1010.4 hPa SSE 18.5 km/h 13.8 km/h 62 % 0 mm
23:09 14.3 °C 6.9 °C 1010.4 hPa WSW 14.8 km/h 8.4 km/h 61 % 0 mm
23:14 14.3 °C 6.8 °C 1010.7 hPa WSW 13 km/h 10.8 km/h 61 % 0 mm
23:19 14.2 °C 7.1 °C 1010.7 hPa WSW 9.3 km/h 7.2 km/h 62 % 0 mm
23:24 14.1 °C 7.2 °C 1010.7 hPa West 18.5 km/h 13 km/h 63 % 0 mm
23:29 14 °C 7.1 °C 1010.7 hPa West 22.2 km/h 11.1 km/h 63 % 0 mm
23:34 13.9 °C 6.9 °C 1010.7 hPa SW 16.7 km/h 13.2 km/h 63 % 0 mm
23:39 13.8 °C 7.1 °C 1010.7 hPa SW 14.8 km/h 8.7 km/h 64 % 0 mm
23:44 13.7 °C 6.7 °C 1010.7 hPa WSW 18.5 km/h 11.3 km/h 63 % 0 mm
23:49 13.6 °C 6.4 °C 1010.7 hPa SW 20.4 km/h 12.4 km/h 62 % 0 mm
23:54 13.6 °C 6.4 °C 1011.1 hPa West 16.7 km/h 12.2 km/h 62 % 0 mm
23:59 13.5 °C 6.6 °C 1011.1 hPa West 16.7 km/h 9 km/h 63 % 0 mm
Ararat Weather
Compliments of Weather Underground - 2.25 mb
Click here to send mail.


ABOUT

Live weather data from Ararat, Victoria, Australia, 3377
Data uploaded from Cumulus every 5 minutes to Weather Underground.
This site then downloads the raw data for formatting and display.
Metric and imperial data can be displayed. Graphs and historical data available.
Includes Sun and Moon times and rain image live from BOM.

Check out Ararat Weather on Facebook, Twitter and Google +

Help support ongoing costs by checking out the ads





Follow @AraratWeather